sensor_id;sensor_type;location;lat;lon;timestamp;temperature;humidity
23156;DHT22;11746;50.876;4.246;2022-07-05T00:01:19;17.10;99.90
23156;DHT22;11746;50.876;4.246;2022-07-05T00:03:45;17.10;99.90
23156;DHT22;11746;50.876;4.246;2022-07-05T00:06:12;17.10;99.90
23156;DHT22;11746;50.876;4.246;2022-07-05T00:08:38;17.20;99.90
23156;DHT22;11746;50.876;4.246;2022-07-05T00:11:04;17.10;99.90
23156;DHT22;11746;50.876;4.246;2022-07-05T00:13:32;17.20;99.90
23156;DHT22;11746;50.876;4.246;2022-07-05T00:15:58;17.10;99.90
23156;DHT22;11746;50.876;4.246;2022-07-05T00:18:24;17.10;99.90
23156;DHT22;11746;50.876;4.246;2022-07-05T00:20:49;17.20;99.90
23156;DHT22;11746;50.876;4.246;2022-07-05T00:23:15;17.10;99.90
23156;DHT22;11746;50.876;4.246;2022-07-05T00:25:40;17.10;99.90
23156;DHT22;11746;50.876;4.246;2022-07-05T00:28:06;17.10;99.90
23156;DHT22;11746;50.876;4.246;2022-07-05T00:30:36;17.10;99.90
23156;DHT22;11746;50.876;4.246;2022-07-05T00:33:05;17.20;99.90
23156;DHT22;11746;50.876;4.246;2022-07-05T00:35:30;17.20;99.90
23156;DHT22;11746;50.876;4.246;2022-07-05T00:37:58;17.10;99.90
23156;DHT22;11746;50.876;4.246;2022-07-05T00:40:24;16.90;99.90
23156;DHT22;11746;50.876;4.246;2022-07-05T00:42:50;17.00;99.90
23156;DHT22;11746;50.876;4.246;2022-07-05T00:45:16;16.90;99.90
23156;DHT22;11746;50.876;4.246;2022-07-05T00:47:42;16.90;99.90
23156;DHT22;11746;50.876;4.246;2022-07-05T00:50:08;16.80;99.90
23156;DHT22;11746;50.876;4.246;2022-07-05T00:52:35;16.80;99.90
23156;DHT22;11746;50.876;4.246;2022-07-05T00:55:01;16.80;99.90
23156;DHT22;11746;50.876;4.246;2022-07-05T00:57:27;16.70;99.90
23156;DHT22;11746;50.876;4.246;2022-07-05T00:59:53;16.70;99.90
23156;DHT22;11746;50.876;4.246;2022-07-05T01:02:19;16.60;99.90
23156;DHT22;11746;50.876;4.246;2022-07-05T01:04:47;16.30;99.90
23156;DHT22;11746;50.876;4.246;2022-07-05T01:07:16;16.20;99.90
23156;DHT22;11746;50.876;4.246;2022-07-05T01:09:42;16.20;99.90
23156;DHT22;11746;50.876;4.246;2022-07-05T01:12:08;16.30;99.90
23156;DHT22;11746;50.876;4.246;2022-07-05T01:14:36;16.40;99.90
23156;DHT22;11746;50.876;4.246;2022-07-05T01:17:03;16.40;99.90
23156;DHT22;11746;50.876;4.246;2022-07-05T01:19:29;16.40;99.90
23156;DHT22;11746;50.876;4.246;2022-07-05T01:21:54;16.30;99.90
23156;DHT22;11746;50.876;4.246;2022-07-05T01:24:24;16.30;99.90
23156;DHT22;11746;50.876;4.246;2022-07-05T01:26:50;16.10;99.90
23156;DHT22;11746;50.876;4.246;2022-07-05T01:29:16;16.00;99.90
23156;DHT22;11746;50.876;4.246;2022-07-05T01:31:45;15.90;99.90
23156;DHT22;11746;50.876;4.246;2022-07-05T01:34:11;16.00;99.90
23156;DHT22;11746;50.876;4.246;2022-07-05T01:36:37;15.90;99.90
23156;DHT22;11746;50.876;4.246;2022-07-05T01:39:05;16.00;99.90
23156;DHT22;11746;50.876;4.246;2022-07-05T01:41:31;16.00;99.90
23156;DHT22;11746;50.876;4.246;2022-07-05T01:43:58;16.00;99.90
23156;DHT22;11746;50.876;4.246;2022-07-05T01:46:24;16.10;99.90
23156;DHT22;11746;50.876;4.246;2022-07-05T01:48:55;15.90;99.90
23156;DHT22;11746;50.876;4.246;2022-07-05T01:51:27;15.70;99.90
23156;DHT22;11746;50.876;4.246;2022-07-05T01:53:57;15.50;99.90
23156;DHT22;11746;50.876;4.246;2022-07-05T01:56:22;15.50;99.90
23156;DHT22;11746;50.876;4.246;2022-07-05T01:58:50;15.70;99.90
23156;DHT22;11746;50.876;4.246;2022-07-05T02:01:38;15.90;99.90
23156;DHT22;11746;50.876;4.246;2022-07-05T02:04:06;16.10;99.90
23156;DHT22;11746;50.876;4.246;2022-07-05T02:06:35;16.10;99.90
23156;DHT22;11746;50.876;4.246;2022-07-05T02:09:04;16.10;99.90
23156;DHT22;11746;50.876;4.246;2022-07-05T02:11:30;16.00;99.90
23156;DHT22;11746;50.876;4.246;2022-07-05T02:13:59;16.00;99.90
23156;DHT22;11746;50.876;4.246;2022-07-05T02:16:26;16.00;99.90
23156;DHT22;11746;50.876;4.246;2022-07-05T02:18:52;15.90;99.90
23156;DHT22;11746;50.876;4.246;2022-07-05T02:21:18;16.00;99.90
23156;DHT22;11746;50.876;4.246;2022-07-05T02:23:44;15.90;99.90
23156;DHT22;11746;50.876;4.246;2022-07-05T02:26:10;15.80;99.90
23156;DHT22;11746;50.876;4.246;2022-07-05T02:28:36;15.70;99.90
23156;DHT22;11746;50.876;4.246;2022-07-05T02:31:01;15.70;99.90
23156;DHT22;11746;50.876;4.246;2022-07-05T02:33:27;15.80;99.90
23156;DHT22;11746;50.876;4.246;2022-07-05T02:35:56;15.60;99.90
23156;DHT22;11746;50.876;4.246;2022-07-05T02:38:21;15.60;99.90
23156;DHT22;11746;50.876;4.246;2022-07-05T02:40:48;15.50;99.90
23156;DHT22;11746;50.876;4.246;2022-07-05T02:43:16;15.60;99.90
23156;DHT22;11746;50.876;4.246;2022-07-05T02:45:44;15.80;99.90
23156;DHT22;11746;50.876;4.246;2022-07-05T02:48:14;15.80;99.90
23156;DHT22;11746;50.876;4.246;2022-07-05T02:50:40;15.80;99.90
23156;DHT22;11746;50.876;4.246;2022-07-05T02:53:06;15.80;99.90
23156;DHT22;11746;50.876;4.246;2022-07-05T02:55:32;15.60;99.90
23156;DHT22;11746;50.876;4.246;2022-07-05T02:57:59;15.50;99.90
23156;DHT22;11746;50.876;4.246;2022-07-05T03:00:25;15.50;99.90
23156;DHT22;11746;50.876;4.246;2022-07-05T03:02:53;15.40;99.90
23156;DHT22;11746;50.876;4.246;2022-07-05T03:05:18;15.50;99.90
23156;DHT22;11746;50.876;4.246;2022-07-05T03:07:44;15.50;99.90
23156;DHT22;11746;50.876;4.246;2022-07-05T03:10:10;15.60;99.90
23156;DHT22;11746;50.876;4.246;2022-07-05T03:12:35;15.60;99.90
23156;DHT22;11746;50.876;4.246;2022-07-05T03:15:01;15.60;99.90
23156;DHT22;11746;50.876;4.246;2022-07-05T03:17:27;15.60;99.90
23156;DHT22;11746;50.876;4.246;2022-07-05T03:19:55;15.60;99.90
23156;DHT22;11746;50.876;4.246;2022-07-05T03:22:21;15.60;99.90
23156;DHT22;11746;50.876;4.246;2022-07-05T03:24:46;15.50;99.90
23156;DHT22;11746;50.876;4.246;2022-07-05T03:27:12;15.50;99.90
23156;DHT22;11746;50.876;4.246;2022-07-05T03:29:40;15.50;99.90
23156;DHT22;11746;50.876;4.246;2022-07-05T03:32:06;15.30;99.90
23156;DHT22;11746;50.876;4.246;2022-07-05T03:34:34;15.40;99.90
23156;DHT22;11746;50.876;4.246;2022-07-05T03:37:00;15.50;99.90
23156;DHT22;11746;50.876;4.246;2022-07-05T03:39:25;15.60;99.90
23156;DHT22;11746;50.876;4.246;2022-07-05T03:41:52;15.50;99.90
23156;DHT22;11746;50.876;4.246;2022-07-05T03:44:22;15.40;99.90
23156;DHT22;11746;50.876;4.246;2022-07-05T03:46:50;15.40;99.90
23156;DHT22;11746;50.876;4.246;2022-07-05T03:49:16;15.30;99.90
23156;DHT22;11746;50.876;4.246;2022-07-05T03:51:42;15.40;99.90
23156;DHT22;11746;50.876;4.246;2022-07-05T03:54:08;15.50;99.90
23156;DHT22;11746;50.876;4.246;2022-07-05T03:56:34;15.30;99.90
23156;DHT22;11746;50.876;4.246;2022-07-05T03:59:00;15.20;99.90
23156;DHT22;11746;50.876;4.246;2022-07-05T04:01:43;15.20;99.90
23156;DHT22;11746;50.876;4.246;2022-07-05T04:04:19;15.10;99.90
23156;DHT22;11746;50.876;4.246;2022-07-05T04:06:45;15.10;99.90
23156;DHT22;11746;50.876;4.246;2022-07-05T04:09:11;15.00;99.90
23156;DHT22;11746;50.876;4.246;2022-07-05T04:11:36;15.00;99.90
23156;DHT22;11746;50.876;4.246;2022-07-05T04:14:02;15.10;99.90
23156;DHT22;11746;50.876;4.246;2022-07-05T04:16:28;15.10;99.90
23156;DHT22;11746;50.876;4.246;2022-07-05T04:18:54;15.20;99.90
23156;DHT22;11746;50.876;4.246;2022-07-05T04:21:20;15.30;99.90
23156;DHT22;11746;50.876;4.246;2022-07-05T04:23:46;15.40;99.90
23156;DHT22;11746;50.876;4.246;2022-07-05T04:26:12;15.50;99.90
23156;DHT22;11746;50.876;4.246;2022-07-05T04:28:40;15.60;99.90
23156;DHT22;11746;50.876;4.246;2022-07-05T04:31:06;15.50;99.90
23156;DHT22;11746;50.876;4.246;2022-07-05T04:33:34;15.40;99.90
23156;DHT22;11746;50.876;4.246;2022-07-05T04:36:00;15.40;99.90
23156;DHT22;11746;50.876;4.246;2022-07-05T04:38:25;15.50;99.90
23156;DHT22;11746;50.876;4.246;2022-07-05T04:40:56;15.60;99.90
23156;DHT22;11746;50.876;4.246;2022-07-05T04:43:24;15.60;99.90
23156;DHT22;11746;50.876;4.246;2022-07-05T04:45:52;15.70;99.90
23156;DHT22;11746;50.876;4.246;2022-07-05T04:48:18;15.80;99.90
23156;DHT22;11746;50.876;4.246;2022-07-05T04:50:43;15.80;99.90
23156;DHT22;11746;50.876;4.246;2022-07-05T04:53:11;15.80;99.90
23156;DHT22;11746;50.876;4.246;2022-07-05T04:55:37;15.70;99.90
23156;DHT22;11746;50.876;4.246;2022-07-05T04:58:03;15.90;99.90
23156;DHT22;11746;50.876;4.246;2022-07-05T05:00:29;15.90;99.90
23156;DHT22;11746;50.876;4.246;2022-07-05T05:02:57;15.80;99.90
23156;DHT22;11746;50.876;4.246;2022-07-05T05:05:23;15.70;99.90
23156;DHT22;11746;50.876;4.246;2022-07-05T05:07:49;15.90;99.90
23156;DHT22;11746;50.876;4.246;2022-07-05T05:10:14;15.70;99.90
23156;DHT22;11746;50.876;4.246;2022-07-05T05:12:40;15.70;99.90
23156;DHT22;11746;50.876;4.246;2022-07-05T05:15:07;15.70;99.90
23156;DHT22;11746;50.876;4.246;2022-07-05T05:17:40;15.90;99.90
23156;DHT22;11746;50.876;4.246;2022-07-05T05:20:17;15.90;99.90
23156;DHT22;11746;50.876;4.246;2022-07-05T05:22:44;16.10;99.90
23156;DHT22;11746;50.876;4.246;2022-07-05T05:25:12;16.10;99.90
23156;DHT22;11746;50.876;4.246;2022-07-05T05:27:52;16.10;99.90
23156;DHT22;11746;50.876;4.246;2022-07-05T05:30:20;16.20;99.90
23156;DHT22;11746;50.876;4.246;2022-07-05T05:32:47;16.20;99.90
23156;DHT22;11746;50.876;4.246;2022-07-05T05:35:15;16.30;99.90
23156;DHT22;11746;50.876;4.246;2022-07-05T05:37:51;16.40;99.90
23156;DHT22;11746;50.876;4.246;2022-07-05T05:40:22;16.10;99.90
23156;DHT22;11746;50.876;4.246;2022-07-05T05:42:49;16.20;99.90
23156;DHT22;11746;50.876;4.246;2022-07-05T05:45:16;16.30;99.90
23156;DHT22;11746;50.876;4.246;2022-07-05T05:47:45;16.40;99.90
23156;DHT22;11746;50.876;4.246;2022-07-05T05:50:11;16.50;99.90
23156;DHT22;11746;50.876;4.246;2022-07-05T05:52:37;16.50;99.90
23156;DHT22;11746;50.876;4.246;2022-07-05T05:55:06;16.40;99.90
23156;DHT22;11746;50.876;4.246;2022-07-05T05:57:34;16.50;99.90
23156;DHT22;11746;50.876;4.246;2022-07-05T06:00:02;16.40;99.90
23156;DHT22;11746;50.876;4.246;2022-07-05T06:02:28;16.30;99.90
23156;DHT22;11746;50.876;4.246;2022-07-05T06:04:53;16.40;99.90
23156;DHT22;11746;50.876;4.246;2022-07-05T06:07:19;16.50;99.90
23156;DHT22;11746;50.876;4.246;2022-07-05T06:09:44;16.50;99.90
23156;DHT22;11746;50.876;4.246;2022-07-05T06:12:13;16.60;99.90
23156;DHT22;11746;50.876;4.246;2022-07-05T06:14:39;16.60;99.90
23156;DHT22;11746;50.876;4.246;2022-07-05T06:17:05;16.70;99.90
23156;DHT22;11746;50.876;4.246;2022-07-05T06:19:33;16.60;99.90
23156;DHT22;11746;50.876;4.246;2022-07-05T06:21:59;16.70;99.90
23156;DHT22;11746;50.876;4.246;2022-07-05T06:24:25;16.80;99.90
23156;DHT22;11746;50.876;4.246;2022-07-05T06:26:53;16.90;99.90
23156;DHT22;11746;50.876;4.246;2022-07-05T06:29:18;16.70;99.90
23156;DHT22;11746;50.876;4.246;2022-07-05T06:31:44;16.60;99.90
23156;DHT22;11746;50.876;4.246;2022-07-05T06:34:09;16.50;99.90
23156;DHT22;11746;50.876;4.246;2022-07-05T06:36:35;16.40;99.90
23156;DHT22;11746;50.876;4.246;2022-07-05T06:39:01;16.60;99.90
23156;DHT22;11746;50.876;4.246;2022-07-05T06:41:27;16.70;99.90
23156;DHT22;11746;50.876;4.246;2022-07-05T06:43:57;16.90;99.90
23156;DHT22;11746;50.876;4.246;2022-07-05T06:46:24;17.00;99.90
23156;DHT22;11746;50.876;4.246;2022-07-05T06:48:50;17.00;99.90
23156;DHT22;11746;50.876;4.246;2022-07-05T06:51:16;17.10;99.90
23156;DHT22;11746;50.876;4.246;2022-07-05T06:53:41;17.20;99.90
23156;DHT22;11746;50.876;4.246;2022-07-05T06:56:09;17.30;99.90
23156;DHT22;11746;50.876;4.246;2022-07-05T06:58:35;17.20;99.90
23156;DHT22;11746;50.876;4.246;2022-07-05T07:01:03;17.20;99.90
23156;DHT22;11746;50.876;4.246;2022-07-05T07:03:32;17.10;99.90
23156;DHT22;11746;50.876;4.246;2022-07-05T07:05:58;17.30;99.90
23156;DHT22;11746;50.876;4.246;2022-07-05T07:08:27;17.60;99.90
23156;DHT22;11746;50.876;4.246;2022-07-05T07:11:11;17.80;99.90
23156;DHT22;11746;50.876;4.246;2022-07-05T07:13:38;17.80;99.90
23156;DHT22;11746;50.876;4.246;2022-07-05T07:16:04;18.10;99.90
23156;DHT22;11746;50.876;4.246;2022-07-05T07:18:33;18.10;99.90
23156;DHT22;11746;50.876;4.246;2022-07-05T07:21:00;18.10;99.90
23156;DHT22;11746;50.876;4.246;2022-07-05T07:23:26;18.20;99.90
23156;DHT22;11746;50.876;4.246;2022-07-05T07:25:54;18.10;99.90
23156;DHT22;11746;50.876;4.246;2022-07-05T07:28:20;18.00;99.90
23156;DHT22;11746;50.876;4.246;2022-07-05T07:30:46;18.30;99.90
23156;DHT22;11746;50.876;4.246;2022-07-05T07:33:11;18.60;99.90
23156;DHT22;11746;50.876;4.246;2022-07-05T07:35:37;18.80;99.90
23156;DHT22;11746;50.876;4.246;2022-07-05T07:38:05;19.00;99.90
23156;DHT22;11746;50.876;4.246;2022-07-05T07:40:34;19.20;99.90
23156;DHT22;11746;50.876;4.246;2022-07-05T07:43:00;19.30;99.90
23156;DHT22;11746;50.876;4.246;2022-07-05T07:45:25;19.20;99.90
23156;DHT22;11746;50.876;4.246;2022-07-05T07:47:53;19.20;99.90
23156;DHT22;11746;50.876;4.246;2022-07-05T07:50:19;19.30;99.90
23156;DHT22;11746;50.876;4.246;2022-07-05T07:52:45;19.30;99.90
23156;DHT22;11746;50.876;4.246;2022-07-05T07:55:11;19.20;99.90
23156;DHT22;11746;50.876;4.246;2022-07-05T07:57:37;19.30;99.90
23156;DHT22;11746;50.876;4.246;2022-07-05T08:00:04;19.50;99.90
23156;DHT22;11746;50.876;4.246;2022-07-05T08:02:30;19.40;99.90
23156;DHT22;11746;50.876;4.246;2022-07-05T08:04:56;19.60;99.90
23156;DHT22;11746;50.876;4.246;2022-07-05T08:07:25;19.90;99.90
23156;DHT22;11746;50.876;4.246;2022-07-05T08:09:52;19.90;99.90
23156;DHT22;11746;50.876;4.246;2022-07-05T08:12:18;19.80;99.90
23156;DHT22;11746;50.876;4.246;2022-07-05T08:14:45;19.80;99.90
23156;DHT22;11746;50.876;4.246;2022-07-05T08:17:11;19.60;99.90
23156;DHT22;11746;50.876;4.246;2022-07-05T08:19:37;19.50;99.90
23156;DHT22;11746;50.876;4.246;2022-07-05T08:22:22;19.50;99.90
23156;DHT22;11746;50.876;4.246;2022-07-05T08:24:48;19.70;99.90
23156;DHT22;11746;50.876;4.246;2022-07-05T08:27:17;19.80;99.90
23156;DHT22;11746;50.876;4.246;2022-07-05T08:29:43;19.80;99.90
23156;DHT22;11746;50.876;4.246;2022-07-05T08:32:09;19.80;99.90
23156;DHT22;11746;50.876;4.246;2022-07-05T08:34:38;19.70;99.90
23156;DHT22;11746;50.876;4.246;2022-07-05T08:37:05;19.80;99.90
23156;DHT22;11746;50.876;4.246;2022-07-05T08:39:31;19.90;99.90
23156;DHT22;11746;50.876;4.246;2022-07-05T08:41:58;20.10;99.90
23156;DHT22;11746;50.876;4.246;2022-07-05T08:44:29;20.30;99.90
23156;DHT22;11746;50.876;4.246;2022-07-05T08:46:57;20.40;99.90
23156;DHT22;11746;50.876;4.246;2022-07-05T08:49:27;20.50;99.90
23156;DHT22;11746;50.876;4.246;2022-07-05T08:51:55;20.40;99.90
23156;DHT22;11746;50.876;4.246;2022-07-05T08:54:22;20.50;99.90
23156;DHT22;11746;50.876;4.246;2022-07-05T08:56:49;20.60;99.90
23156;DHT22;11746;50.876;4.246;2022-07-05T08:59:17;20.50;99.90
23156;DHT22;11746;50.876;4.246;2022-07-05T09:01:46;20.40;99.90
23156;DHT22;11746;50.876;4.246;2022-07-05T09:04:13;20.40;99.90
23156;DHT22;11746;50.876;4.246;2022-07-05T09:06:42;20.40;99.90
23156;DHT22;11746;50.876;4.246;2022-07-05T09:09:11;20.50;99.90
23156;DHT22;11746;50.876;4.246;2022-07-05T09:11:39;20.60;99.90
23156;DHT22;11746;50.876;4.246;2022-07-05T09:14:18;20.50;99.90
23156;DHT22;11746;50.876;4.246;2022-07-05T09:16:47;20.40;99.90
23156;DHT22;11746;50.876;4.246;2022-07-05T09:19:12;20.30;99.90
23156;DHT22;11746;50.876;4.246;2022-07-05T09:21:39;20.40;99.90
23156;DHT22;11746;50.876;4.246;2022-07-05T09:24:07;20.50;99.90
23156;DHT22;11746;50.876;4.246;2022-07-05T09:26:38;20.70;99.90
23156;DHT22;11746;50.876;4.246;2022-07-05T09:29:09;20.90;99.90
23156;DHT22;11746;50.876;4.246;2022-07-05T09:31:40;21.00;99.90
23156;DHT22;11746;50.876;4.246;2022-07-05T09:34:12;21.00;99.90
23156;DHT22;11746;50.876;4.246;2022-07-05T09:36:57;20.90;99.90
23156;DHT22;11746;50.876;4.246;2022-07-05T09:44:41;21.50;99.90
23156;DHT22;11746;50.876;4.246;2022-07-05T09:47:14;21.70;99.90
23156;DHT22;11746;50.876;4.246;2022-07-05T09:49:47;21.90;99.90
23156;DHT22;11746;50.876;4.246;2022-07-05T09:52:26;21.90;99.90
23156;DHT22;11746;50.876;4.246;2022-07-05T09:55:07;22.00;99.90
23156;DHT22;11746;50.876;4.246;2022-07-05T09:57:35;22.00;99.90
23156;DHT22;11746;50.876;4.246;2022-07-05T10:02:50;22.40;99.90
23156;DHT22;11746;50.876;4.246;2022-07-05T10:05:23;22.20;99.90
23156;DHT22;11746;50.876;4.246;2022-07-05T10:07:54;22.00;99.90
23156;DHT22;11746;50.876;4.246;2022-07-05T10:10:24;21.90;99.90
23156;DHT22;11746;50.876;4.246;2022-07-05T10:12:51;21.60;99.90
23156;DHT22;11746;50.876;4.246;2022-07-05T10:15:22;21.50;99.90
23156;DHT22;11746;50.876;4.246;2022-07-05T10:18:10;21.50;99.90
23156;DHT22;11746;50.876;4.246;2022-07-05T10:23:04;21.80;99.90
23156;DHT22;11746;50.876;4.246;2022-07-05T10:25:30;22.10;99.90
23156;DHT22;11746;50.876;4.246;2022-07-05T10:27:57;22.40;99.90
23156;DHT22;11746;50.876;4.246;2022-07-05T10:30:24;22.60;99.90
23156;DHT22;11746;50.876;4.246;2022-07-05T10:32:51;22.70;99.90
23156;DHT22;11746;50.876;4.246;2022-07-05T10:35:18;22.90;99.90
23156;DHT22;11746;50.876;4.246;2022-07-05T10:37:45;22.70;99.10
23156;DHT22;11746;50.876;4.246;2022-07-05T10:40:15;23.10;98.70
23156;DHT22;11746;50.876;4.246;2022-07-05T10:42:45;23.20;98.10
23156;DHT22;11746;50.876;4.246;2022-07-05T10:45:34;23.30;98.70
23156;DHT22;11746;50.876;4.246;2022-07-05T10:53:17;23.00;98.20
23156;DHT22;11746;50.876;4.246;2022-07-05T11:06:22;23.10;95.60
23156;DHT22;11746;50.876;4.246;2022-07-05T11:09:13;23.10;95.80
23156;DHT22;11746;50.876;4.246;2022-07-05T11:11:40;23.20;96.40
23156;DHT22;11746;50.876;4.246;2022-07-05T11:16:45;23.50;95.90
23156;DHT22;11746;50.876;4.246;2022-07-05T11:19:15;23.40;96.10
23156;DHT22;11746;50.876;4.246;2022-07-05T11:22:02;23.20;95.70
23156;DHT22;11746;50.876;4.246;2022-07-05T11:24:38;22.70;95.20
23156;DHT22;11746;50.876;4.246;2022-07-05T11:27:10;22.70;95.00
23156;DHT22;11746;50.876;4.246;2022-07-05T11:29:46;22.40;96.40
23156;DHT22;11746;50.876;4.246;2022-07-05T11:32:13;22.40;97.00
23156;DHT22;11746;50.876;4.246;2022-07-05T11:34:43;22.30;97.70
23156;DHT22;11746;50.876;4.246;2022-07-05T11:37:27;22.10;99.10
23156;DHT22;11746;50.876;4.246;2022-07-05T11:42:49;22.20;99.00
23156;DHT22;11746;50.876;4.246;2022-07-05T11:45:16;22.40;98.80
23156;DHT22;11746;50.876;4.246;2022-07-05T11:47:42;22.60;99.20
23156;DHT22;11746;50.876;4.246;2022-07-05T11:50:10;22.80;98.90
23156;DHT22;11746;50.876;4.246;2022-07-05T11:52:38;22.90;99.40
23156;DHT22;11746;50.876;4.246;2022-07-05T11:55:06;23.00;98.50
23156;DHT22;11746;50.876;4.246;2022-07-05T11:57:32;23.30;97.80
23156;DHT22;11746;50.876;4.246;2022-07-05T12:00:01;23.50;96.50
23156;DHT22;11746;50.876;4.246;2022-07-05T12:02:27;23.50;95.80
23156;DHT22;11746;50.876;4.246;2022-07-05T12:04:54;23.50;95.50
23156;DHT22;11746;50.876;4.246;2022-07-05T12:07:28;23.50;96.00
23156;DHT22;11746;50.876;4.246;2022-07-05T12:09:57;23.30;95.70
23156;DHT22;11746;50.876;4.246;2022-07-05T12:12:42;23.20;95.80
23156;DHT22;11746;50.876;4.246;2022-07-05T12:17:45;22.80;97.60
23156;DHT22;11746;50.876;4.246;2022-07-05T12:20:21;22.60;97.30
23156;DHT22;11746;50.876;4.246;2022-07-05T12:22:50;22.60;97.70
23156;DHT22;11746;50.876;4.246;2022-07-05T12:25:18;23.00;98.00
23156;DHT22;11746;50.876;4.246;2022-07-05T12:27:44;23.40;98.10
23156;DHT22;11746;50.876;4.246;2022-07-05T12:30:14;23.30;97.90
23156;DHT22;11746;50.876;4.246;2022-07-05T12:32:56;23.10;98.00
23156;DHT22;11746;50.876;4.246;2022-07-05T12:35:44;22.90;97.80
23156;DHT22;11746;50.876;4.246;2022-07-05T12:38:15;22.90;97.00
23156;DHT22;11746;50.876;4.246;2022-07-05T12:40:43;23.40;97.90
23156;DHT22;11746;50.876;4.246;2022-07-05T12:43:11;23.30;98.70
23156;DHT22;11746;50.876;4.246;2022-07-05T12:45:41;23.10;97.00
23156;DHT22;11746;50.876;4.246;2022-07-05T12:48:09;22.80;97.80
23156;DHT22;11746;50.876;4.246;2022-07-05T12:50:47;22.50;97.90
23156;DHT22;11746;50.876;4.246;2022-07-05T12:53:13;22.50;98.00
23156;DHT22;11746;50.876;4.246;2022-07-05T12:56:09;22.40;98.90
23156;DHT22;11746;50.876;4.246;2022-07-05T12:58:54;22.20;99.10
23156;DHT22;11746;50.876;4.246;2022-07-05T13:01:28;22.60;98.20
23156;DHT22;11746;50.876;4.246;2022-07-05T13:06:52;22.90;97.30
23156;DHT22;11746;50.876;4.246;2022-07-05T13:12:08;22.90;96.90
23156;DHT22;11746;50.876;4.246;2022-07-05T13:14:41;22.90;98.50
23156;DHT22;11746;50.876;4.246;2022-07-05T13:17:09;23.00;97.90
23156;DHT22;11746;50.876;4.246;2022-07-05T13:19:36;23.20;96.60
23156;DHT22;11746;50.876;4.246;2022-07-05T13:22:05;23.40;96.80
23156;DHT22;11746;50.876;4.246;2022-07-05T13:24:33;23.40;96.70
23156;DHT22;11746;50.876;4.246;2022-07-05T13:27:02;23.40;96.30
23156;DHT22;11746;50.876;4.246;2022-07-05T13:29:31;23.70;96.50
23156;DHT22;11746;50.876;4.246;2022-07-05T13:31:56;23.70;95.70
23156;DHT22;11746;50.876;4.246;2022-07-05T13:34:22;23.50;96.10
23156;DHT22;11746;50.876;4.246;2022-07-05T13:36:53;23.80;96.10
23156;DHT22;11746;50.876;4.246;2022-07-05T13:39:20;23.80;96.30
23156;DHT22;11746;50.876;4.246;2022-07-05T13:41:50;24.00;95.60
23156;DHT22;11746;50.876;4.246;2022-07-05T13:44:16;23.70;95.70
23156;DHT22;11746;50.876;4.246;2022-07-05T13:46:42;23.90;95.40
23156;DHT22;11746;50.876;4.246;2022-07-05T13:49:10;23.40;95.50
23156;DHT22;11746;50.876;4.246;2022-07-05T13:51:38;23.40;95.40
23156;DHT22;11746;50.876;4.246;2022-07-05T13:54:04;23.20;96.00
23156;DHT22;11746;50.876;4.246;2022-07-05T13:56:31;23.40;96.50
23156;DHT22;11746;50.876;4.246;2022-07-05T13:59:05;23.90;96.30
23156;DHT22;11746;50.876;4.246;2022-07-05T14:01:31;24.20;95.60
23156;DHT22;11746;50.876;4.246;2022-07-05T14:03:59;24.40;94.00
23156;DHT22;11746;50.876;4.246;2022-07-05T14:06:28;24.30;93.80
23156;DHT22;11746;50.876;4.246;2022-07-05T14:08:54;24.00;94.10
23156;DHT22;11746;50.876;4.246;2022-07-05T14:11:20;24.00;94.70
23156;DHT22;11746;50.876;4.246;2022-07-05T14:13:48;24.10;93.80
23156;DHT22;11746;50.876;4.246;2022-07-05T14:16:14;23.80;94.50
23156;DHT22;11746;50.876;4.246;2022-07-05T14:18:39;24.10;94.80
23156;DHT22;11746;50.876;4.246;2022-07-05T14:21:06;24.60;94.50
23156;DHT22;11746;50.876;4.246;2022-07-05T14:23:31;24.20;93.60
23156;DHT22;11746;50.876;4.246;2022-07-05T14:25:58;24.00;93.50
23156;DHT22;11746;50.876;4.246;2022-07-05T14:28:25;24.00;94.00
23156;DHT22;11746;50.876;4.246;2022-07-05T14:30:50;24.10;93.80
23156;DHT22;11746;50.876;4.246;2022-07-05T14:33:19;24.00;94.00
23156;DHT22;11746;50.876;4.246;2022-07-05T14:35:49;24.30;94.50
23156;DHT22;11746;50.876;4.246;2022-07-05T14:38:18;24.20;94.10
23156;DHT22;11746;50.876;4.246;2022-07-05T14:40:46;24.40;94.00
23156;DHT22;11746;50.876;4.246;2022-07-05T14:43:12;24.30;93.90
23156;DHT22;11746;50.876;4.246;2022-07-05T14:45:38;24.00;93.70
23156;DHT22;11746;50.876;4.246;2022-07-05T14:48:08;23.70;93.90
23156;DHT22;11746;50.876;4.246;2022-07-05T14:50:34;23.60;94.50
23156;DHT22;11746;50.876;4.246;2022-07-05T14:52:59;23.70;94.00
23156;DHT22;11746;50.876;4.246;2022-07-05T14:55:34;23.70;94.00
23156;DHT22;11746;50.876;4.246;2022-07-05T14:58:03;23.80;93.80
23156;DHT22;11746;50.876;4.246;2022-07-05T15:00:29;24.20;94.30
23156;DHT22;11746;50.876;4.246;2022-07-05T15:02:55;24.70;93.20
23156;DHT22;11746;50.876;4.246;2022-07-05T15:05:21;25.00;92.90
23156;DHT22;11746;50.876;4.246;2022-07-05T15:07:49;25.10;91.80
23156;DHT22;11746;50.876;4.246;2022-07-05T15:10:15;24.80;92.10
23156;DHT22;11746;50.876;4.246;2022-07-05T15:12:44;24.30;92.00
23156;DHT22;11746;50.876;4.246;2022-07-05T15:15:11;23.60;91.90
23156;DHT22;11746;50.876;4.246;2022-07-05T15:17:37;23.50;92.40
23156;DHT22;11746;50.876;4.246;2022-07-05T15:20:04;23.30;92.50
23156;DHT22;11746;50.876;4.246;2022-07-05T15:22:30;23.40;92.20
23156;DHT22;11746;50.876;4.246;2022-07-05T15:24:58;23.30;91.90
23156;DHT22;11746;50.876;4.246;2022-07-05T15:27:26;23.60;92.30
23156;DHT22;11746;50.876;4.246;2022-07-05T15:29:58;23.60;91.80
23156;DHT22;11746;50.876;4.246;2022-07-05T15:32:24;23.70;91.40
23156;DHT22;11746;50.876;4.246;2022-07-05T15:34:52;23.70;91.30
23156;DHT22;11746;50.876;4.246;2022-07-05T15:37:18;23.80;90.80
23156;DHT22;11746;50.876;4.246;2022-07-05T15:39:44;24.00;91.30
23156;DHT22;11746;50.876;4.246;2022-07-05T15:42:14;24.20;91.20
23156;DHT22;11746;50.876;4.246;2022-07-05T15:44:42;24.30;90.50
23156;DHT22;11746;50.876;4.246;2022-07-05T15:47:07;24.10;90.00
23156;DHT22;11746;50.876;4.246;2022-07-05T15:49:35;23.90;90.20
23156;DHT22;11746;50.876;4.246;2022-07-05T15:52:04;23.80;90.40
23156;DHT22;11746;50.876;4.246;2022-07-05T15:54:30;23.40;89.90
23156;DHT22;11746;50.876;4.246;2022-07-05T15:56:56;23.10;90.90
23156;DHT22;11746;50.876;4.246;2022-07-05T15:59:23;23.10;90.50
23156;DHT22;11746;50.876;4.246;2022-07-05T16:01:51;23.40;90.80
23156;DHT22;11746;50.876;4.246;2022-07-05T16:04:17;23.30;90.50
23156;DHT22;11746;50.876;4.246;2022-07-05T16:06:43;23.60;90.00
23156;DHT22;11746;50.876;4.246;2022-07-05T16:09:10;23.80;90.40
23156;DHT22;11746;50.876;4.246;2022-07-05T16:11:36;24.00;89.50
23156;DHT22;11746;50.876;4.246;2022-07-05T16:14:02;23.70;89.60
23156;DHT22;11746;50.876;4.246;2022-07-05T16:16:27;23.80;89.00